Terminal Aerodrome Forecast
Issued by NWS

Home | Current Version | Previous Version | Text Only | Print | Product List | Glossary On
Versions: 1 2 3 4 5 6 7 8 9 10 11 12 13
000
FTUS46 KSGX 291120
TAFCRQ
TAF
KCRQ 291120Z 2912/3012 VRB03KT 1 1/2SM BR BKN002
      TEMPO 2912/2914 1/2SM FG VV001
     FM291500 VRB03KT 6SM HZ FEW006
     FM291900 25009KT P6SM SKC
     FM300200 VRB04KT P6SM FEW007
     FM300700 VRB03KT 6SM BR BKN007=

USA.gov is the U.S. government's official web portal to all federal, state and local government web resources and services.